Hawthorne, FL

9:45 PM EDT on October 24, 2014 (GMT -0400)
Melrose Landing Airpark | Change Station
CLOSE
Current Station
Personal Weather Station
Location: Hawthorne, FL
Elevation: 152 ft
Nearby Weather Stations

Elev 152 ft 29.67 °N, 81.95 °W | Updated 4 minutes ago

Clear
Clear
60.9 °F
Feels Like 60.9 °F
N
0.0
Wind Variable Wind from ENE
Gusts 1.0 mph

Today
High -- | Low -- °F
--% Chance of Precip.
Yesterday
High -- | Low -- °F
Precip. -- in
7:35 AM 6:48 PM
New Moon, 1% visible
Pressure 29.99 in
Visibility 10.0 miles
Clouds Clear
Dew Point 57 °F
Humidity 86%
Rainfall 0.00 in
Snow Depth Not available.
UV 0.0 out of 12
Pollen 5.40 out of 12
Air Quality Not available.
Flu Activity Not available.
METAR KGNV 250053Z 04003KT 10SM CLR 16/12 A2999 RMK AO2 SLP154 T01610117

More Conditions Fewer Conditions

Pressure 29.99 in
Visibility 10.0 miles
Clouds Clear
Dew Point 57 °F
Humidity 86%
Rainfall 0.00 in
Snow Depth Not available.
UV 0.0 out of 12
Pollen 5.40 out of 12
Air Quality Not available.
Flu Activity Not available.
METAR KGNV 250053Z 04003KT 10SM CLR 16/12 A2999 RMK AO2 SLP154 T01610117

More Conditions Fewer Conditions

10-Day Weather Forecast

Almanac

Astronomy

Oct. 24, 2014 Rise Set
Actual Time 7:35 AM EDT 6:48 PM EDT
Civil Twilight 7:11 AM EDT 7:12 PM EDT
Nautical Twilight 6:43 AM EDT 7:40 PM EDT
Astronomical Twilight 6:15 AM EDT 8:08 PM EDT
Moon 8:10 AM EDT (10/24) 7:30 PM EDT (10/24)
Length of Visible Light 12h 01m
Length of Day
11h 12m
Tomorrow will be 1m 38s shorter.
New Moon, 1% of the Moon is Illuminated
Today
New Moon
Oct 30
First Quarter
Nov 6
Full
Nov 14
Last Quarter
Nov 22
New

Today's Extremes

State Highs State Lows

Community

WunderPhotos

Upload Photos

1,764,749 photos uploaded!

WunderBlogs® & News

Nearby

Snow Depth

Station Depth Elevation
No new snow has been reported.

Earthquake Activity

City Distance Mag. Time & Date
No recent earthquake activity has been reported nearby.
Minimum magnitude displayed is 2.5.

Coastal Water Temperatures

Place Temperature
No Stations Reporting

Nearby Weather Stations